createdAt,value
2023-02-21T00:02:11.049Z,5.10
2023-02-21T00:04:58.206Z,5.30
2023-02-21T00:07:44.987Z,6.23
2023-02-21T00:10:33.659Z,5.00
2023-02-21T00:13:20.079Z,6.10
2023-02-21T00:16:06.550Z,5.03
2023-02-21T00:18:56.354Z,5.10
2023-02-21T00:21:43.095Z,4.40
2023-02-21T00:24:33.049Z,5.10
2023-02-21T00:27:19.316Z,4.77
2023-02-21T00:30:06.605Z,4.60
2023-02-21T00:32:52.720Z,5.30
2023-02-21T00:35:40.362Z,5.50
2023-02-21T00:38:26.858Z,4.83
2023-02-21T00:41:12.807Z,5.30
2023-02-21T00:43:59.890Z,5.03
2023-02-21T00:46:46.099Z,5.27
2023-02-21T00:49:33.223Z,5.20
2023-02-21T00:52:20.876Z,4.67
2023-02-21T00:55:06.585Z,5.93
2023-02-21T00:57:51.955Z,5.50
2023-02-21T01:00:39.593Z,5.37
2023-02-21T01:03:26.941Z,5.53
2023-02-21T01:06:16.124Z,5.73
2023-02-21T01:09:05.450Z,5.60
2023-02-21T01:11:52.941Z,5.80
2023-02-21T01:14:39.052Z,6.13
2023-02-21T01:17:25.870Z,4.73
2023-02-21T01:20:12.494Z,4.77
2023-02-21T01:22:58.752Z,5.40
2023-02-21T01:25:46.634Z,6.47
2023-02-21T01:28:32.361Z,5.93
2023-02-21T01:31:23.292Z,5.60
2023-02-21T01:34:08.774Z,5.70
2023-02-21T01:36:54.164Z,5.87
2023-02-21T01:39:40.184Z,6.00
2023-02-21T01:42:29.708Z,5.90
2023-02-21T01:46:04.670Z,6.13
2023-02-21T01:48:53.783Z,5.53
2023-02-21T01:51:46.358Z,5.33
2023-02-21T01:54:32.175Z,5.50
2023-02-21T01:57:20.611Z,5.93
2023-02-21T02:00:10.408Z,5.80
2023-02-21T02:03:11.316Z,5.53
2023-02-21T02:05:58.362Z,6.13
2023-02-21T02:08:48.030Z,5.17
2023-02-21T02:11:45.231Z,6.30
2023-02-21T02:14:44.809Z,5.50
2023-02-21T02:17:25.378Z,6.57
2023-02-21T02:20:12.275Z,6.03
2023-02-21T02:22:59.441Z,5.40
2023-02-21T02:25:42.885Z,5.80
2023-02-21T02:28:38.025Z,6.90
2023-02-21T02:31:48.645Z,6.10
2023-02-21T02:34:43.207Z,5.77
2023-02-21T02:37:20.105Z,6.90
2023-02-21T02:39:53.216Z,6.43
2023-02-21T02:42:34.904Z,5.33
2023-02-21T02:45:13.924Z,7.33
2023-02-21T02:47:45.526Z,6.67
2023-02-21T02:50:17.852Z,6.33
2023-02-21T02:52:55.134Z,7.50
2023-02-21T02:55:36.201Z,7.07
2023-02-21T02:58:05.110Z,7.40
2023-02-21T03:00:36.156Z,7.47
2023-02-21T03:03:23.388Z,5.63
2023-02-21T03:06:03.031Z,6.40
2023-02-21T03:08:44.110Z,6.23
2023-02-21T03:11:18.294Z,5.23
2023-02-21T03:13:50.565Z,6.10
2023-02-21T03:16:26.890Z,5.37
2023-02-21T03:19:02.777Z,6.80
2023-02-21T03:21:39.788Z,6.23
2023-02-21T03:24:11.893Z,7.00
2023-02-21T03:26:43.914Z,6.57
2023-02-21T03:29:33.993Z,7.00
2023-02-21T03:32:11.954Z,7.20
2023-02-21T03:34:41.039Z,6.13
2023-02-21T03:37:23.033Z,6.47
2023-02-21T03:39:51.946Z,6.70
2023-02-21T03:42:20.856Z,5.80
2023-02-21T03:44:49.787Z,6.97
2023-02-21T03:47:18.377Z,6.90
2023-02-21T03:49:49.363Z,7.00
2023-02-21T03:52:19.888Z,7.00
2023-02-21T03:54:49.101Z,6.33
2023-02-21T03:57:21.158Z,6.27
2023-02-21T03:59:52.199Z,5.30
2023-02-21T04:02:20.944Z,6.10
2023-02-21T04:04:50.058Z,6.23
2023-02-21T04:07:22.609Z,6.80
2023-02-21T04:09:52.258Z,4.53
2023-02-21T04:12:27.899Z,5.93
2023-02-21T04:15:00.973Z,6.50
2023-02-21T04:17:29.992Z,6.37
2023-02-21T04:20:00.502Z,6.43
2023-02-21T04:22:30.552Z,7.27
2023-02-21T04:24:59.438Z,6.80
2023-02-21T04:27:28.151Z,8.13
2023-02-21T04:29:58.417Z,6.70
2023-02-21T04:32:28.128Z,7.17
2023-02-21T04:34:57.738Z,6.80
2023-02-21T04:37:26.636Z,6.90
2023-02-21T04:39:57.455Z,7.20
2023-02-21T04:42:25.743Z,7.47
2023-02-21T04:45:00.136Z,6.73
2023-02-21T04:47:30.382Z,7.07
2023-02-21T04:49:58.919Z,6.40
2023-02-21T04:52:27.544Z,7.33
2023-02-21T04:54:57.389Z,6.97
2023-02-21T04:57:26.552Z,6.40
2023-02-21T04:59:59.102Z,6.53
2023-02-21T05:02:28.810Z,7.30
2023-02-21T05:04:57.185Z,7.80
2023-02-21T05:07:28.453Z,7.70
2023-02-21T05:09:58.616Z,7.37
2023-02-21T05:12:27.096Z,7.03
2023-02-21T05:14:56.048Z,6.67
2023-02-21T05:17:25.716Z,6.67
2023-02-21T05:19:55.268Z,7.77
2023-02-21T05:22:23.818Z,8.73
2023-02-21T05:24:52.306Z,10.20
2023-02-21T05:27:23.142Z,9.50
2023-02-21T05:29:54.260Z,9.50
2023-02-21T05:32:24.482Z,9.20
2023-02-21T05:34:55.262Z,9.40
2023-02-21T05:37:23.704Z,9.40
2023-02-21T05:39:52.335Z,8.63
2023-02-21T05:42:22.090Z,10.70
2023-02-21T05:44:50.424Z,9.93
2023-02-21T05:47:19.150Z,8.63
2023-02-21T05:49:47.539Z,9.20
2023-02-21T05:52:18.280Z,10.13
2023-02-21T05:54:46.976Z,9.97
2023-02-21T05:57:15.269Z,10.00
2023-02-21T05:59:48.098Z,10.00
2023-02-21T06:02:16.850Z,9.57
2023-02-21T06:04:45.216Z,9.43
2023-02-21T06:07:13.661Z,9.27
2023-02-21T06:09:41.978Z,10.07
2023-02-21T06:12:10.286Z,10.27
2023-02-21T06:14:39.213Z,10.40
2023-02-21T06:17:09.528Z,9.70
2023-02-21T06:19:38.251Z,9.13
2023-02-21T06:22:07.539Z,9.57
2023-02-21T06:24:36.135Z,9.30
2023-02-21T06:27:05.353Z,9.73
2023-02-21T06:29:33.707Z,9.93
2023-02-21T06:32:02.528Z,8.17
2023-02-21T06:34:33.402Z,8.67
2023-02-21T06:37:02.130Z,8.40
2023-02-21T06:39:30.657Z,9.40
2023-02-21T06:41:59.905Z,12.37
2023-02-21T06:44:28.807Z,11.30
2023-02-21T06:46:57.549Z,11.20
2023-02-21T06:49:26.249Z,10.53
2023-02-21T06:51:56.693Z,11.80
2023-02-21T06:54:25.674Z,11.30
2023-02-21T06:56:54.587Z,11.70
2023-02-21T06:59:22.960Z,10.83
2023-02-21T07:01:51.666Z,10.80
2023-02-21T07:04:20.426Z,10.97
2023-02-21T07:06:49.062Z,12.40
2023-02-21T07:09:19.404Z,12.43
2023-02-21T07:11:48.036Z,12.27
2023-02-21T07:14:16.932Z,10.83
2023-02-21T07:16:45.336Z,11.13
2023-02-21T07:21:44.784Z,10.20
2023-02-21T07:24:13.357Z,9.50
2023-02-21T07:26:43.464Z,8.60
2023-02-21T07:29:12.091Z,9.40
2023-02-21T07:31:40.655Z,7.83
2023-02-21T07:34:09.433Z,8.97
2023-02-21T07:36:40.307Z,9.27
2023-02-21T07:39:10.294Z,9.07
2023-02-21T07:41:38.773Z,9.13
2023-02-21T07:44:10.328Z,9.20
2023-02-21T07:46:42.241Z,9.53
2023-02-21T07:49:10.581Z,8.13
2023-02-21T07:51:38.943Z,9.10
2023-02-21T07:54:07.496Z,9.90
2023-02-21T07:56:36.084Z,10.40
2023-02-21T07:59:05.669Z,11.10
2023-02-21T08:01:35.727Z,10.20
2023-02-21T08:04:04.621Z,9.53
2023-02-21T08:06:34.883Z,10.73
2023-02-21T08:09:03.590Z,11.10
2023-02-21T08:11:32.949Z,11.80
2023-02-21T08:14:01.956Z,11.50
2023-02-21T08:16:30.298Z,11.80
2023-02-21T08:19:00.382Z,13.27
2023-02-21T08:21:29.101Z,10.50
2023-02-21T08:23:58.825Z,10.60
2023-02-21T08:26:27.355Z,10.53
2023-02-21T08:28:55.962Z,9.10
2023-02-21T08:31:24.742Z,10.50
2023-02-21T08:33:54.012Z,10.70
2023-02-21T08:36:25.914Z,10.00
2023-02-21T08:38:54.212Z,10.60
2023-02-21T08:41:22.474Z,10.40
2023-02-21T08:43:51.046Z,12.40
2023-02-21T08:46:20.170Z,11.23
2023-02-21T08:48:48.842Z,9.80
2023-02-21T08:51:18.490Z,9.83
2023-02-21T08:53:48.343Z,10.00
2023-02-21T08:56:23.912Z,9.90
2023-02-21T08:58:54.099Z,10.03
2023-02-21T09:01:23.867Z,12.53
2023-02-21T09:03:54.229Z,10.30
2023-02-21T09:06:22.506Z,10.90
2023-02-21T09:08:53.475Z,10.37
2023-02-21T09:11:22.060Z,11.10
2023-02-21T09:13:50.884Z,11.20
2023-02-21T09:16:20.335Z,10.10
2023-02-21T09:18:56.810Z,10.70
2023-02-21T09:21:25.987Z,10.70
2023-02-21T09:23:59.211Z,11.70
2023-02-21T09:26:31.809Z,12.33
2023-02-21T09:29:00.377Z,12.40
2023-02-21T09:31:29.531Z,10.67
2023-02-21T09:33:58.885Z,11.30
2023-02-21T09:36:28.335Z,11.70
2023-02-21T09:38:59.983Z,11.23
2023-02-21T09:41:29.092Z,11.03
2023-02-21T09:43:57.606Z,10.80
2023-02-21T09:46:35.664Z,11.63
2023-02-21T09:49:06.394Z,11.40
2023-02-21T09:51:37.159Z,11.23
2023-02-21T09:54:08.707Z,9.77
2023-02-21T09:56:43.089Z,9.23
2023-02-21T09:59:13.639Z,10.20
2023-02-21T10:01:54.427Z,10.10
2023-02-21T10:04:34.303Z,9.40
2023-02-21T10:07:09.456Z,10.27
2023-02-21T10:09:47.002Z,10.90
2023-02-21T10:12:29.346Z,10.70
2023-02-21T10:15:16.618Z,10.77
2023-02-21T10:17:51.674Z,9.37
2023-02-21T10:20:28.185Z,9.80
2023-02-21T10:22:57.493Z,11.73
2023-02-21T10:25:31.680Z,9.83
2023-02-21T10:28:03.625Z,10.33
2023-02-21T10:30:36.683Z,11.93
2023-02-21T10:33:10.002Z,11.30
2023-02-21T10:35:40.362Z,10.80
2023-02-21T10:38:15.382Z,10.20
2023-02-21T10:40:47.916Z,11.50
2023-02-21T10:43:20.996Z,11.70
2023-02-21T10:45:54.805Z,12.13
2023-02-21T10:48:26.747Z,11.90
2023-02-21T10:51:08.209Z,11.30
2023-02-21T10:53:39.129Z,11.20
2023-02-21T10:56:24.912Z,12.87
2023-02-21T10:58:57.020Z,10.90
2023-02-21T11:01:35.460Z,11.20
2023-02-21T11:04:08.094Z,11.13
2023-02-21T11:06:42.286Z,11.90
2023-02-21T11:09:31.881Z,10.60
2023-02-21T11:12:17.564Z,10.13
2023-02-21T11:14:47.570Z,10.67
2023-02-21T11:17:19.334Z,10.93
2023-02-21T11:19:53.347Z,11.50
2023-02-21T11:22:25.448Z,11.53
2023-02-21T11:25:05.694Z,11.30
2023-02-21T11:27:38.040Z,12.47
2023-02-21T11:30:17.742Z,12.23
2023-02-21T11:32:53.783Z,12.23
2023-02-21T11:35:27.285Z,12.80
2023-02-21T11:37:57.754Z,11.60
2023-02-21T11:40:32.395Z,12.33
2023-02-21T11:43:29.920Z,10.87
2023-02-21T11:46:11.955Z,11.57
2023-02-21T11:48:47.262Z,11.10
2023-02-21T11:51:28.038Z,11.73
2023-02-21T11:53:56.924Z,11.50
2023-02-21T11:56:35.839Z,11.77
2023-02-21T11:59:17.926Z,12.80
2023-02-21T12:01:57.208Z,12.27
2023-02-21T12:04:47.932Z,12.00
2023-02-21T12:07:21.338Z,11.83
2023-02-21T12:09:56.420Z,10.77
2023-02-21T12:12:38.934Z,9.27
2023-02-21T12:15:25.662Z,10.00
2023-02-21T12:18:07.626Z,8.60
2023-02-21T12:20:56.269Z,8.80
2023-02-21T12:23:30.905Z,8.40
2023-02-21T12:26:14.625Z,7.33
2023-02-21T12:29:00.737Z,6.93
2023-02-21T12:31:46.254Z,6.90
2023-02-21T12:34:26.296Z,7.97
2023-02-21T12:37:10.830Z,7.50
2023-02-21T12:39:59.456Z,7.10
2023-02-21T12:42:43.499Z,6.60
2023-02-21T12:45:30.617Z,6.30
2023-02-21T12:48:05.595Z,6.70
2023-02-21T12:50:38.293Z,5.87
2023-02-21T12:53:12.553Z,6.20
2023-02-21T12:55:44.468Z,6.73
2023-02-21T12:58:19.851Z,6.50
2023-02-21T13:00:53.035Z,6.10
2023-02-21T13:03:37.741Z,4.90
2023-02-21T13:06:15.302Z,5.20
2023-02-21T13:08:55.335Z,3.80
2023-02-21T13:11:28.697Z,4.77
2023-02-21T13:13:59.632Z,5.33
2023-02-21T13:16:30.999Z,5.07
2023-02-21T13:19:05.733Z,5.13
2023-02-21T13:21:49.549Z,5.83
2023-02-21T13:24:31.366Z,4.90
2023-02-21T13:27:22.209Z,5.17
2023-02-21T13:29:51.219Z,4.27
2023-02-21T13:32:21.514Z,5.30
2023-02-21T13:34:57.281Z,5.43
2023-02-21T13:37:29.612Z,5.70
2023-02-21T13:40:07.763Z,5.37
2023-02-21T13:42:39.969Z,5.47
2023-02-21T13:45:20.397Z,5.13
2023-02-21T13:48:19.280Z,6.47
2023-02-21T13:50:53.592Z,6.37
2023-02-21T13:53:24.002Z,6.90
2023-02-21T13:56:41.578Z,6.33
2023-02-21T13:59:33.147Z,5.50
2023-02-21T14:02:30.742Z,6.43
2023-02-21T14:05:09.001Z,6.40
2023-02-21T14:08:14.118Z,5.77
2023-02-21T14:10:47.983Z,5.93
2023-02-21T14:13:24.368Z,6.27
2023-02-21T14:16:02.116Z,5.10
2023-02-21T14:18:38.261Z,5.90
2023-02-21T14:21:11.202Z,5.70
2023-02-21T14:23:44.747Z,6.07
2023-02-21T14:26:40.721Z,5.60
2023-02-21T14:29:17.237Z,6.03
2023-02-21T14:32:05.027Z,5.63
2023-02-21T14:34:37.671Z,5.93
2023-02-21T14:37:17.352Z,6.37
2023-02-21T14:39:54.895Z,6.17
2023-02-21T14:42:50.007Z,5.73
2023-02-21T14:45:33.082Z,5.90
2023-02-21T14:48:20.076Z,5.60
2023-02-21T14:51:19.676Z,5.43
2023-02-21T14:54:10.745Z,5.23
2023-02-21T14:56:50.985Z,6.30
2023-02-21T14:59:52.292Z,6.07
2023-02-21T15:02:29.551Z,5.63
2023-02-21T15:05:07.456Z,5.60
2023-02-21T15:07:47.000Z,5.10
2023-02-21T15:10:20.895Z,4.80
2023-02-21T15:12:52.150Z,5.00
2023-02-21T15:15:24.262Z,5.37
2023-02-21T15:18:04.833Z,5.10
2023-02-21T15:20:35.695Z,4.17
2023-02-21T15:23:13.717Z,4.80
2023-02-21T15:25:45.924Z,5.30
2023-02-21T15:28:35.475Z,5.00
2023-02-21T15:31:08.239Z,4.60
2023-02-21T15:33:40.735Z,5.03
2023-02-21T15:36:17.154Z,4.93
2023-02-21T15:38:50.229Z,5.57
2023-02-21T15:41:31.162Z,5.63
2023-02-21T15:44:04.883Z,5.90
2023-02-21T15:46:41.973Z,5.17
2023-02-21T15:49:20.102Z,4.90
2023-02-21T15:51:50.461Z,4.90
2023-02-21T15:54:27.394Z,4.33
2023-02-21T15:57:04.462Z,5.03
2023-02-21T15:59:34.798Z,4.63
2023-02-21T16:02:16.102Z,4.83
2023-02-21T16:04:47.331Z,4.20
2023-02-21T16:07:21.071Z,4.50
2023-02-21T16:09:52.220Z,4.20
2023-02-21T16:12:29.906Z,4.23
2023-02-21T16:15:02.100Z,3.60
2023-02-21T16:17:33.983Z,3.30
2023-02-21T16:20:17.584Z,2.93
2023-02-21T16:25:39.677Z,3.20
2023-02-21T16:28:14.421Z,3.03
2023-02-21T16:30:46.688Z,3.27
2023-02-21T16:33:15.508Z,2.70
2023-02-21T16:35:45.542Z,2.90
2023-02-21T16:38:16.738Z,2.57
2023-02-21T16:40:47.258Z,2.33
2023-02-21T16:43:19.592Z,2.87
2023-02-21T16:45:49.861Z,2.30
2023-02-21T16:52:01.592Z,2.63
2023-02-21T16:54:30.407Z,3.30
2023-02-21T16:57:06.334Z,2.80
2023-02-21T16:59:54.267Z,2.63
2023-02-21T17:02:25.083Z,2.70
2023-02-21T17:05:21.386Z,3.10
2023-02-21T17:08:17.816Z,3.10
2023-02-21T17:17:53.427Z,2.90
2023-02-21T17:20:40.936Z,2.93
2023-02-21T17:27:06.011Z,3.53
2023-02-21T17:29:36.530Z,3.30
2023-02-21T17:32:11.774Z,2.67
2023-02-21T17:38:01.832Z,3.00
2023-02-21T17:40:48.362Z,2.27
2023-02-21T17:43:18.035Z,2.80
2023-02-21T17:45:48.999Z,2.90
2023-02-21T17:48:23.435Z,2.70
2023-02-21T17:50:54.673Z,2.50
2023-02-21T17:53:26.605Z,2.20
2023-02-21T17:56:27.442Z,2.30
2023-02-21T17:59:37.521Z,3.47
2023-02-21T18:07:15.069Z,2.20
2023-02-21T18:10:14.917Z,2.37
2023-02-21T18:12:44.716Z,2.40
2023-02-21T18:15:15.515Z,2.57
2023-02-21T18:17:44.468Z,2.60
2023-02-21T18:20:15.127Z,2.70
2023-02-21T18:22:48.003Z,2.13
2023-02-21T18:25:35.309Z,2.57
2023-02-21T18:28:07.201Z,2.60
2023-02-21T18:30:35.624Z,3.00
2023-02-21T18:33:05.327Z,3.03
2023-02-21T18:35:41.405Z,2.93
2023-02-21T18:38:11.826Z,2.23
2023-02-21T18:40:45.565Z,2.77
2023-02-21T18:43:21.316Z,2.60
2023-02-21T18:45:51.533Z,2.70
2023-02-21T18:48:35.850Z,2.57
2023-02-21T18:51:17.676Z,2.47
2023-02-21T18:54:22.075Z,3.13
2023-02-21T18:57:09.549Z,2.60
2023-02-21T18:59:50.157Z,2.10
2023-02-21T19:02:22.499Z,2.77
2023-02-21T19:04:56.692Z,2.23
2023-02-21T19:07:37.020Z,2.37
2023-02-21T19:10:41.209Z,2.33
2023-02-21T19:13:13.422Z,2.77
2023-02-21T19:16:15.452Z,2.23
2023-02-21T19:18:44.328Z,2.30
2023-02-21T19:21:13.077Z,2.70
2023-02-21T19:23:47.358Z,2.40
2023-02-21T19:26:21.940Z,2.60
2023-02-21T19:28:59.129Z,2.80
2023-02-21T19:31:38.045Z,2.80
2023-02-21T19:34:06.730Z,2.80
2023-02-21T19:36:43.508Z,2.57
2023-02-21T19:39:37.362Z,2.63
2023-02-21T19:42:09.156Z,2.60
2023-02-21T19:44:54.232Z,3.07
2023-02-21T19:47:42.998Z,2.53
2023-02-21T19:50:38.304Z,3.50
2023-02-21T19:53:07.338Z,3.17
2023-02-21T19:55:35.716Z,2.60
2023-02-21T19:58:07.388Z,3.03
2023-02-21T20:00:39.906Z,2.53
2023-02-21T20:03:09.991Z,3.03
2023-02-21T20:05:49.430Z,2.50
2023-02-21T20:08:33.662Z,2.80
2023-02-21T20:11:15.115Z,3.17
2023-02-21T20:13:44.012Z,2.80
2023-02-21T20:16:15.651Z,3.37
2023-02-21T20:18:45.999Z,3.07
2023-02-21T20:21:19.717Z,2.50
2023-02-21T20:23:49.679Z,2.87
2023-02-21T20:26:19.234Z,3.07
2023-02-21T20:28:49.287Z,3.27
2023-02-21T20:31:18.863Z,3.23
2023-02-21T20:33:48.982Z,3.13
2023-02-21T20:36:18.894Z,2.50
2023-02-21T20:38:47.837Z,2.90
2023-02-21T20:41:18.157Z,2.80
2023-02-21T20:43:52.517Z,3.47
2023-02-21T20:46:25.173Z,2.90
2023-02-21T20:48:55.540Z,3.37
2023-02-21T20:51:30.021Z,4.10
2023-02-21T20:54:00.473Z,3.73
2023-02-21T20:56:34.070Z,3.07
2023-02-21T20:59:05.072Z,2.60
2023-02-21T21:01:35.331Z,2.43
2023-02-21T21:04:08.340Z,2.17
2023-02-21T21:06:36.879Z,2.53
2023-02-21T21:09:05.597Z,2.40
2023-02-21T21:11:35.247Z,2.93
2023-02-21T21:14:04.085Z,3.20
2023-02-21T21:16:34.611Z,3.97
2023-02-21T21:19:05.388Z,3.57
2023-02-21T21:21:34.391Z,3.13
2023-02-21T21:24:07.445Z,3.70
2023-02-21T21:26:36.210Z,3.77
2023-02-21T21:29:09.537Z,3.63
2023-02-21T21:31:39.509Z,2.67
2023-02-21T21:34:09.314Z,3.30
2023-02-21T21:36:38.559Z,4.03
2023-02-21T21:39:07.395Z,3.40
2023-02-21T21:41:37.790Z,4.43
2023-02-21T21:44:07.996Z,3.87
2023-02-21T21:46:39.393Z,4.80
2023-02-21T21:49:10.811Z,3.83
2023-02-21T21:51:39.044Z,4.40
2023-02-21T21:54:07.395Z,4.90
2023-02-21T21:56:36.208Z,4.20
2023-02-21T21:59:04.697Z,4.50
2023-02-21T22:01:34.054Z,3.70
2023-02-21T22:04:02.804Z,3.50
2023-02-21T22:06:32.727Z,4.10
2023-02-21T22:09:01.962Z,4.13
2023-02-21T22:11:30.253Z,3.50
2023-02-21T22:13:58.857Z,3.90
2023-02-21T22:16:27.470Z,4.67
2023-02-21T22:18:56.501Z,4.70
2023-02-21T22:21:25.475Z,4.07
2023-02-21T22:23:56.171Z,3.73
2023-02-21T22:26:25.754Z,3.40
2023-02-21T22:28:54.896Z,4.10
2023-02-21T22:31:24.068Z,3.00
2023-02-21T22:33:52.752Z,3.77
2023-02-21T22:36:21.549Z,3.50
2023-02-21T22:38:51.620Z,3.00
2023-02-21T22:41:25.969Z,4.30
2023-02-21T22:43:55.967Z,3.27
2023-02-21T22:46:27.457Z,3.83
2023-02-21T22:48:56.497Z,4.33
2023-02-21T22:51:27.939Z,5.17
2023-02-21T22:53:58.978Z,4.33
2023-02-21T22:56:30.371Z,4.13
2023-02-21T22:59:01.236Z,3.93
2023-02-21T23:01:33.942Z,4.70
2023-02-21T23:04:15.987Z,3.13
2023-02-21T23:06:44.912Z,3.73
2023-02-21T23:09:15.429Z,4.10
2023-02-21T23:11:48.700Z,4.20
2023-02-21T23:14:19.526Z,5.87
2023-02-21T23:16:48.483Z,5.87
2023-02-21T23:19:19.321Z,4.97
2023-02-21T23:21:50.182Z,5.13
2023-02-21T23:24:21.083Z,3.73
2023-02-21T23:26:54.982Z,3.50
2023-02-21T23:29:26.072Z,4.43
2023-02-21T23:32:10.043Z,3.50
2023-02-21T23:34:41.845Z,3.70
2023-02-21T23:37:13.190Z,4.00
2023-02-21T23:39:42.379Z,4.40
2023-02-21T23:42:17.436Z,3.77
2023-02-21T23:44:46.106Z,3.63
2023-02-21T23:47:15.855Z,3.90
2023-02-21T23:49:44.925Z,3.97
2023-02-21T23:52:16.225Z,5.30
2023-02-21T23:54:47.357Z,4.00
2023-02-21T23:57:17.113Z,3.70
2023-02-21T23:59:46.064Z,3.70
